sensor_id;sensor_type;location;lat;lon;timestamp;pressure;altitude;pressure_sealevel;temperature;humidity
6395;BME280;3230;42.588;23.358;2023-12-28T00:01:08;91996.97;;;1.99;97.18
6395;BME280;3230;42.588;23.358;2023-12-28T00:03:33;92004.13;;;2.04;98.03
6395;BME280;3230;42.588;23.358;2023-12-28T00:05:59;92004.91;;;1.98;98.82
6395;BME280;3230;42.588;23.358;2023-12-28T00:08:24;92002.72;;;1.95;99.09
6395;BME280;3230;42.588;23.358;2023-12-28T00:10:50;92002.13;;;1.79;99.59
6395;BME280;3230;42.588;23.358;2023-12-28T00:13:15;92011.25;;;1.82;100.00
6395;BME280;3230;42.588;23.358;2023-12-28T00:15:41;91998.13;;;1.83;100.00
6395;BME280;3230;42.588;23.358;2023-12-28T00:18:06;92002.91;;;1.80;100.00
6395;BME280;3230;42.588;23.358;2023-12-28T00:20:32;92008.84;;;1.80;99.76
6395;BME280;3230;42.588;23.358;2023-12-28T00:22:57;92010.63;;;1.66;99.16
6395;BME280;3230;42.588;23.358;2023-12-28T00:25:23;92016.41;;;1.68;98.78
6395;BME280;3230;42.588;23.358;2023-12-28T00:27:49;92016.81;;;1.72;96.99
6395;BME280;3230;42.588;23.358;2023-12-28T00:30:14;92016.38;;;1.62;96.97
6395;BME280;3230;42.588;23.358;2023-12-28T00:32:45;92015.97;;;1.58;96.42
6395;BME280;3230;42.588;23.358;2023-12-28T00:35:11;92021.53;;;1.62;95.85
6395;BME280;3230;42.588;23.358;2023-12-28T00:37:36;92013.75;;;1.48;95.79
6395;BME280;3230;42.588;23.358;2023-12-28T00:40:02;92007.19;;;1.39;95.96
6395;BME280;3230;42.588;23.358;2023-12-28T00:42:28;92003.81;;;1.45;96.01
6395;BME280;3230;42.588;23.358;2023-12-28T00:44:53;92005.38;;;1.46;96.30
6395;BME280;3230;42.588;23.358;2023-12-28T00:47:19;92012.91;;;1.41;96.46
6395;BME280;3230;42.588;23.358;2023-12-28T00:49:44;92007.75;;;1.41;96.66
6395;BME280;3230;42.588;23.358;2023-12-28T00:52:10;92011.31;;;1.40;96.62
6395;BME280;3230;42.588;23.358;2023-12-28T00:54:38;92017.13;;;1.49;96.59
6395;BME280;3230;42.588;23.358;2023-12-28T00:57:04;92018.69;;;1.43;96.53
6395;BME280;3230;42.588;23.358;2023-12-28T00:59:29;92028.63;;;1.46;96.32
6395;BME280;3230;42.588;23.358;2023-12-28T01:02:05;92028.25;;;1.49;96.24
6395;BME280;3230;42.588;23.358;2023-12-28T01:04:30;92025.84;;;1.41;96.32
6395;BME280;3230;42.588;23.358;2023-12-28T01:06:56;92030.63;;;1.44;96.51
6395;BME280;3230;42.588;23.358;2023-12-28T01:09:21;92031.41;;;1.44;96.26
6395;BME280;3230;42.588;23.358;2023-12-28T01:11:47;92034.81;;;1.52;96.03
6395;BME280;3230;42.588;23.358;2023-12-28T01:14:18;92042.56;;;1.52;96.00
6395;BME280;3230;42.588;23.358;2023-12-28T01:16:44;92035.78;;;1.44;96.24
6395;BME280;3230;42.588;23.358;2023-12-28T01:19:10;92025.25;;;1.46;96.36
6395;BME280;3230;42.588;23.358;2023-12-28T01:21:35;92028.47;;;1.48;96.39
6395;BME280;3230;42.588;23.358;2023-12-28T01:24:01;92034.44;;;1.62;96.45
6395;BME280;3230;42.588;23.358;2023-12-28T01:26:26;92035.47;;;1.74;96.09
6395;BME280;3230;42.588;23.358;2023-12-28T01:28:51;92034.28;;;1.76;95.74
6395;BME280;3230;42.588;23.358;2023-12-28T01:31:17;92027.09;;;1.65;96.00
6395;BME280;3230;42.588;23.358;2023-12-28T01:33:42;92037.25;;;1.67;95.93
6395;BME280;3230;42.588;23.358;2023-12-28T01:36:18;92037.81;;;1.55;95.98
6395;BME280;3230;42.588;23.358;2023-12-28T01:38:44;92033.03;;;1.52;96.11
6395;BME280;3230;42.588;23.358;2023-12-28T01:41:09;92019.28;;;1.38;96.32
6395;BME280;3230;42.588;23.358;2023-12-28T01:43:35;92030.63;;;1.44;96.53
6395;BME280;3230;42.588;23.358;2023-12-28T01:46:00;92023.47;;;1.46;96.87
6395;BME280;3230;42.588;23.358;2023-12-28T01:48:27;92028.03;;;1.44;96.80
6395;BME280;3230;42.588;23.358;2023-12-28T01:50:53;92032.22;;;1.45;97.18
6395;BME280;3230;42.588;23.358;2023-12-28T01:53:19;92024.47;;;1.45;97.24
6395;BME280;3230;42.588;23.358;2023-12-28T01:55:44;92020.66;;;1.41;97.16
6395;BME280;3230;42.588;23.358;2023-12-28T01:58:10;92015.50;;;1.41;97.46
6395;BME280;3230;42.588;23.358;2023-12-28T02:00:36;92021.06;;;1.38;96.99
6395;BME280;3230;42.588;23.358;2023-12-28T02:03:05;92020.09;;;1.39;96.76
6395;BME280;3230;42.588;23.358;2023-12-28T02:05:32;92020.66;;;1.41;94.64
6395;BME280;3230;42.588;23.358;2023-12-28T02:07:58;92009.97;;;1.51;93.87
6395;BME280;3230;42.588;23.358;2023-12-28T02:10:23;92006.41;;;1.52;93.85
6395;BME280;3230;42.588;23.358;2023-12-28T02:12:49;91999.44;;;1.46;94.41
6395;BME280;3230;42.588;23.358;2023-12-28T02:15:15;92008.78;;;1.47;94.66
6395;BME280;3230;42.588;23.358;2023-12-28T02:17:48;92016.31;;;1.48;94.80
6395;BME280;3230;42.588;23.358;2023-12-28T02:20:19;92009.16;;;1.43;94.74
6395;BME280;3230;42.588;23.358;2023-12-28T02:22:46;92005.56;;;1.38;94.92
6395;BME280;3230;42.588;23.358;2023-12-28T02:25:12;92006.97;;;1.47;94.10
6395;BME280;3230;42.588;23.358;2023-12-28T02:27:41;92007.59;;;1.49;93.93
6395;BME280;3230;42.588;23.358;2023-12-28T02:30:08;92004.81;;;1.51;94.04
6395;BME280;3230;42.588;23.358;2023-12-28T02:35:32;91992.84;;;1.36;94.05
6395;BME280;3230;42.588;23.358;2023-12-28T02:37:56;91995.00;;;1.33;94.28
6395;BME280;3230;42.588;23.358;2023-12-28T02:40:23;91994.38;;;1.24;94.67
6395;BME280;3230;42.588;23.358;2023-12-28T02:42:50;91981.00;;;1.07;95.16
6395;BME280;3230;42.588;23.358;2023-12-28T02:45:17;91982.47;;;1.23;95.56
6395;BME280;3230;42.588;23.358;2023-12-28T02:47:43;91985.81;;;1.17;95.57
6395;BME280;3230;42.588;23.358;2023-12-28T02:50:09;91994.44;;;1.31;95.67
6395;BME280;3230;42.588;23.358;2023-12-28T02:52:35;91986.69;;;1.37;95.06
6395;BME280;3230;42.588;23.358;2023-12-28T02:55:00;91990.13;;;1.51;94.50
6395;BME280;3230;42.588;23.358;2023-12-28T02:57:26;92000.88;;;1.62;93.79
6395;BME280;3230;42.588;23.358;2023-12-28T02:59:51;91997.69;;;1.66;92.97
6395;BME280;3230;42.588;23.358;2023-12-28T03:02:16;91996.72;;;1.74;91.47
6395;BME280;3230;42.588;23.358;2023-12-28T03:04:42;91992.56;;;1.80;90.26
6395;BME280;3230;42.588;23.358;2023-12-28T03:07:08;91992.97;;;1.83;89.43
6395;BME280;3230;42.588;23.358;2023-12-28T03:09:33;91982.44;;;1.78;89.15
6395;BME280;3230;42.588;23.358;2023-12-28T03:12:00;91974.25;;;1.68;89.60
6395;BME280;3230;42.588;23.358;2023-12-28T03:14:25;91973.69;;;1.79;90.40
6395;BME280;3230;42.588;23.358;2023-12-28T03:16:51;91969.09;;;1.81;90.42
6395;BME280;3230;42.588;23.358;2023-12-28T03:19:16;91962.75;;;1.77;89.99
6395;BME280;3230;42.588;23.358;2023-12-28T03:21:43;91964.50;;;1.76;89.14
6395;BME280;3230;42.588;23.358;2023-12-28T03:24:08;91956.97;;;1.75;88.54
6395;BME280;3230;42.588;23.358;2023-12-28T03:26:38;91958.75;;;1.68;88.65
6395;BME280;3230;42.588;23.358;2023-12-28T03:29:05;91955.56;;;1.59;88.22
6395;BME280;3230;42.588;23.358;2023-12-28T03:31:31;91957.16;;;1.73;86.20
6395;BME280;3230;42.588;23.358;2023-12-28T03:33:56;91957.78;;;1.82;85.07
6395;BME280;3230;42.588;23.358;2023-12-28T03:36:22;91960.34;;;1.82;85.27
6395;BME280;3230;42.588;23.358;2023-12-28T03:38:48;91967.91;;;1.84;84.93
6395;BME280;3230;42.588;23.358;2023-12-28T03:41:21;91960.75;;;1.86;84.20
6395;BME280;3230;42.588;23.358;2023-12-28T03:43:47;91970.09;;;1.94;83.09
6395;BME280;3230;42.588;23.358;2023-12-28T03:46:13;91976.69;;;1.96;81.74
6395;BME280;3230;42.588;23.358;2023-12-28T03:48:39;91988.59;;;1.97;81.85
6395;BME280;3230;42.588;23.358;2023-12-28T03:51:04;91983.44;;;1.97;80.67
6395;BME280;3230;42.588;23.358;2023-12-28T03:53:30;91997.78;;;2.00;80.84
6395;BME280;3230;42.588;23.358;2023-12-28T03:55:59;92005.69;;;1.98;81.93
6395;BME280;3230;42.588;23.358;2023-12-28T03:58:25;92004.91;;;1.91;82.51
6395;BME280;3230;42.588;23.358;2023-12-28T04:00:50;92008.28;;;1.91;83.70
6395;BME280;3230;42.588;23.358;2023-12-28T04:03:16;92010.44;;;1.81;84.74
6395;BME280;3230;42.588;23.358;2023-12-28T04:05:43;92015.59;;;1.68;85.77
6395;BME280;3230;42.588;23.358;2023-12-28T04:08:08;92012.38;;;1.59;86.21
6395;BME280;3230;42.588;23.358;2023-12-28T04:10:34;92004.03;;;1.50;87.60
6395;BME280;3230;42.588;23.358;2023-12-28T04:12:59;92007.00;;;1.54;87.06
6395;BME280;3230;42.588;23.358;2023-12-28T04:15:28;92005.59;;;1.44;87.45
6395;BME280;3230;42.588;23.358;2023-12-28T04:17:54;92011.50;;;1.32;88.06
6395;BME280;3230;42.588;23.358;2023-12-28T04:20:20;92014.31;;;1.37;88.23
6395;BME280;3230;42.588;23.358;2023-12-28T04:22:45;92013.31;;;1.38;88.62
6395;BME280;3230;42.588;23.358;2023-12-28T04:25:11;92011.50;;;1.32;89.34
6395;BME280;3230;42.588;23.358;2023-12-28T04:27:38;92002.28;;;1.16;90.19
6395;BME280;3230;42.588;23.358;2023-12-28T04:30:04;92009.47;;;1.20;90.46
6395;BME280;3230;42.588;23.358;2023-12-28T04:32:33;92003.53;;;1.26;90.71
6395;BME280;3230;42.588;23.358;2023-12-28T04:34:58;91997.00;;;1.31;91.55
6395;BME280;3230;42.588;23.358;2023-12-28T04:37:24;91995.81;;;1.40;92.60
6395;BME280;3230;42.588;23.358;2023-12-28T04:39:52;92007.38;;;1.44;93.27
6395;BME280;3230;42.588;23.358;2023-12-28T04:42:18;92013.91;;;1.40;93.69
6395;BME280;3230;42.588;23.358;2023-12-28T04:44:44;92011.94;;;1.35;94.00
6395;BME280;3230;42.588;23.358;2023-12-28T04:47:09;92007.50;;;1.22;94.09
6395;BME280;3230;42.588;23.358;2023-12-28T04:49:34;92009.88;;;1.17;94.20
6395;BME280;3230;42.588;23.358;2023-12-28T04:52:00;92008.22;;;1.03;94.71
6395;BME280;3230;42.588;23.358;2023-12-28T04:54:25;92006.06;;;1.13;94.64
6395;BME280;3230;42.588;23.358;2023-12-28T04:56:51;92000.53;;;1.16;94.23
6395;BME280;3230;42.588;23.358;2023-12-28T04:59:16;92006.81;;;1.07;94.18
6395;BME280;3230;42.588;23.358;2023-12-28T05:01:43;92005.22;;;1.06;94.27
6395;BME280;3230;42.588;23.358;2023-12-28T05:04:08;92009.81;;;1.10;93.75
6395;BME280;3230;42.588;23.358;2023-12-28T05:06:34;91992.69;;;0.96;93.76
6395;BME280;3230;42.588;23.358;2023-12-28T05:09:00;92002.00;;;0.97;93.94
6395;BME280;3230;42.588;23.358;2023-12-28T05:11:26;92001.56;;;0.87;94.11
6395;BME280;3230;42.588;23.358;2023-12-28T05:13:52;92002.38;;;0.87;94.23
6395;BME280;3230;42.588;23.358;2023-12-28T05:16:17;91990.94;;;0.68;94.63
6395;BME280;3230;42.588;23.358;2023-12-28T05:18:42;92006.88;;;0.78;95.06
6395;BME280;3230;42.588;23.358;2023-12-28T05:21:08;92000.19;;;0.84;94.87
6395;BME280;3230;42.588;23.358;2023-12-28T05:23:33;92008.28;;;0.81;95.03
6395;BME280;3230;42.588;23.358;2023-12-28T05:25:59;92002.50;;;0.72;95.16
6395;BME280;3230;42.588;23.358;2023-12-28T05:28:24;91997.75;;;0.76;95.55
6395;BME280;3230;42.588;23.358;2023-12-28T05:30:50;92006.06;;;0.78;96.19
6395;BME280;3230;42.588;23.358;2023-12-28T05:33:15;92005.28;;;0.77;96.78
6395;BME280;3230;42.588;23.358;2023-12-28T05:35:40;92008.91;;;0.83;97.54
6395;BME280;3230;42.588;23.358;2023-12-28T05:38:06;92008.91;;;0.83;97.95
6395;BME280;3230;42.588;23.358;2023-12-28T05:40:31;92009.91;;;0.89;99.07
6395;BME280;3230;42.588;23.358;2023-12-28T05:42:57;92015.13;;;1.02;100.00
6395;BME280;3230;42.588;23.358;2023-12-28T05:45:22;92015.78;;;1.11;100.00
6395;BME280;3230;42.588;23.358;2023-12-28T05:47:47;92010.22;;;1.14;100.00
6395;BME280;3230;42.588;23.358;2023-12-28T05:50:13;91996.09;;;1.03;100.00
6395;BME280;3230;42.588;23.358;2023-12-28T05:52:38;92013.44;;;1.16;100.00
6395;BME280;3230;42.588;23.358;2023-12-28T05:55:04;92015.03;;;1.17;100.00
6395;BME280;3230;42.588;23.358;2023-12-28T05:57:30;92017.19;;;1.14;100.00
6395;BME280;3230;42.588;23.358;2023-12-28T05:59:57;92023.28;;;1.06;100.00
6395;BME280;3230;42.588;23.358;2023-12-28T06:02:22;92016.56;;;1.05;100.00
6395;BME280;3230;42.588;23.358;2023-12-28T06:04:48;92027.53;;;1.14;100.00
6395;BME280;3230;42.588;23.358;2023-12-28T06:07:13;92029.13;;;1.15;100.00
6395;BME280;3230;42.588;23.358;2023-12-28T06:09:38;92026.00;;;1.33;100.00
6395;BME280;3230;42.588;23.358;2023-12-28T06:12:05;92024.03;;;1.35;100.00
6395;BME280;3230;42.588;23.358;2023-12-28T06:14:30;92022.66;;;1.39;100.00
6395;BME280;3230;42.588;23.358;2023-12-28T06:16:56;92017.50;;;1.46;100.00
6395;BME280;3230;42.588;23.358;2023-12-28T06:19:22;92013.38;;;1.58;100.00
6395;BME280;3230;42.588;23.358;2023-12-28T06:21:48;92018.78;;;1.76;100.00
6395;BME280;3230;42.588;23.358;2023-12-28T06:24:13;92013.25;;;1.93;100.00
6395;BME280;3230;42.588;23.358;2023-12-28T06:26:41;92023.63;;;2.00;100.00
6395;BME280;3230;42.588;23.358;2023-12-28T06:29:07;92021.06;;;2.13;100.00
6395;BME280;3230;42.588;23.358;2023-12-28T06:31:32;92025.03;;;2.36;100.00
6395;BME280;3230;42.588;23.358;2023-12-28T06:34:04;92016.28;;;2.50;100.00
6395;BME280;3230;42.588;23.358;2023-12-28T06:36:30;92025.22;;;2.68;100.00
6395;BME280;3230;42.588;23.358;2023-12-28T06:38:56;92033.75;;;2.75;100.00
6395;BME280;3230;42.588;23.358;2023-12-28T06:41:21;92034.56;;;2.82;100.00
6395;BME280;3230;42.588;23.358;2023-12-28T06:43:47;92040.50;;;2.90;100.00
6395;BME280;3230;42.588;23.358;2023-12-28T06:46:12;92032.97;;;2.88;100.00
6395;BME280;3230;42.588;23.358;2023-12-28T06:48:38;92048.69;;;2.86;100.00
6395;BME280;3230;42.588;23.358;2023-12-28T06:51:06;92043.50;;;3.00;100.00
6395;BME280;3230;42.588;23.358;2023-12-28T06:53:31;92046.28;;;3.05;100.00
6395;BME280;3230;42.588;23.358;2023-12-28T06:55:57;92051.44;;;3.18;100.00
6395;BME280;3230;42.588;23.358;2023-12-28T06:58:22;92049.78;;;3.31;100.00
6395;BME280;3230;42.588;23.358;2023-12-28T07:00:48;92047.97;;;3.38;100.00
6395;BME280;3230;42.588;23.358;2023-12-28T07:03:13;92047.94;;;3.51;100.00
6395;BME280;3230;42.588;23.358;2023-12-28T07:05:38;92043.91;;;3.62;100.00
6395;BME280;3230;42.588;23.358;2023-12-28T07:08:04;92047.44;;;3.75;100.00
6395;BME280;3230;42.588;23.358;2023-12-28T07:10:30;92051.41;;;3.84;100.00
6395;BME280;3230;42.588;23.358;2023-12-28T07:12:55;92047.72;;;3.98;100.00
6395;BME280;3230;42.588;23.358;2023-12-28T07:15:21;92046.84;;;4.11;100.00
6395;BME280;3230;42.588;23.358;2023-12-28T07:17:46;92038.56;;;4.28;100.00
6395;BME280;3230;42.588;23.358;2023-12-28T07:20:11;92038.47;;;4.41;100.00
6395;BME280;3230;42.588;23.358;2023-12-28T07:22:37;92037.16;;;4.57;100.00
6395;BME280;3230;42.588;23.358;2023-12-28T07:25:05;92034.97;;;4.79;100.00
6395;BME280;3230;42.588;23.358;2023-12-28T07:27:32;92043.88;;;4.90;100.00
6395;BME280;3230;42.588;23.358;2023-12-28T07:29:57;92050.31;;;5.06;100.00
6395;BME280;3230;42.588;23.358;2023-12-28T07:32:22;92043.72;;;5.29;100.00
6395;BME280;3230;42.588;23.358;2023-12-28T07:34:53;92051.34;;;6.29;100.00
6395;BME280;3230;42.588;23.358;2023-12-28T07:37:19;92059.00;;;7.73;99.98
6395;BME280;3230;42.588;23.358;2023-12-28T07:39:45;92061.44;;;9.12;92.04
6395;BME280;3230;42.588;23.358;2023-12-28T07:42:10;92066.84;;;10.50;87.46
6395;BME280;3230;42.588;23.358;2023-12-28T07:44:35;92076.19;;;11.76;74.27
6395;BME280;3230;42.588;23.358;2023-12-28T07:47:01;92078.66;;;12.57;65.16
6395;BME280;3230;42.588;23.358;2023-12-28T07:49:27;92085.59;;;13.56;56.37
6395;BME280;3230;42.588;23.358;2023-12-28T07:51:52;92079.25;;;13.36;55.15
6395;BME280;3230;42.588;23.358;2023-12-28T07:54:18;92077.13;;;14.50;53.30
6395;BME280;3230;42.588;23.358;2023-12-28T07:56:43;92084.56;;;14.93;49.64
6395;BME280;3230;42.588;23.358;2023-12-28T07:59:09;92078.78;;;15.31;49.14
6395;BME280;3230;42.588;23.358;2023-12-28T08:01:35;92079.63;;;15.85;46.44
6395;BME280;3230;42.588;23.358;2023-12-28T08:04:00;92081.59;;;15.98;46.05
6395;BME280;3230;42.588;23.358;2023-12-28T08:06:27;92079.50;;;16.44;45.13
6395;BME280;3230;42.588;23.358;2023-12-28T08:08:54;92076.84;;;16.87;43.96
6395;BME280;3230;42.588;23.358;2023-12-28T08:11:20;92077.47;;;17.36;42.69
6395;BME280;3230;42.588;23.358;2023-12-28T08:13:45;92068.06;;;16.92;42.46
6395;BME280;3230;42.588;23.358;2023-12-28T08:16:11;92077.69;;;17.40;41.14
6395;BME280;3230;42.588;23.358;2023-12-28T08:18:37;92076.28;;;17.09;41.29
6395;BME280;3230;42.588;23.358;2023-12-28T08:21:02;92072.06;;;16.89;41.42
6395;BME280;3230;42.588;23.358;2023-12-28T08:23:28;92064.88;;;18.08;38.95
6395;BME280;3230;42.588;23.358;2023-12-28T08:25:53;92065.78;;;17.70;39.83
6395;BME280;3230;42.588;23.358;2023-12-28T08:28:19;92063.84;;;17.76;38.86
6395;BME280;3230;42.588;23.358;2023-12-28T08:30:44;92068.22;;;18.28;38.69
6395;BME280;3230;42.588;23.358;2023-12-28T08:33:09;92063.22;;;18.12;39.71
6395;BME280;3230;42.588;23.358;2023-12-28T08:35:42;92063.19;;;18.40;38.82
6395;BME280;3230;42.588;23.358;2023-12-28T08:38:07;92061.56;;;18.16;39.81
6395;BME280;3230;42.588;23.358;2023-12-28T08:40:33;92061.66;;;18.11;38.83
6395;BME280;3230;42.588;23.358;2023-12-28T08:42:58;92051.38;;;17.30;40.68
6395;BME280;3230;42.588;23.358;2023-12-28T08:45:24;92063.41;;;15.38;44.09
6395;BME280;3230;42.588;23.358;2023-12-28T08:47:49;92050.34;;;15.17;44.81
6395;BME280;3230;42.588;23.358;2023-12-28T08:50:14;92047.84;;;14.52;44.79
6395;BME280;3230;42.588;23.358;2023-12-28T08:52:40;92034.00;;;12.83;50.62
6395;BME280;3230;42.588;23.358;2023-12-28T08:55:05;92030.59;;;11.93;53.30
6395;BME280;3230;42.588;23.358;2023-12-28T08:57:31;92027.47;;;11.05;59.38
6395;BME280;3230;42.588;23.358;2023-12-28T08:59:58;92025.53;;;11.28;58.23
6395;BME280;3230;42.588;23.358;2023-12-28T09:02:27;92025.31;;;10.64;62.05
6395;BME280;3230;42.588;23.358;2023-12-28T09:04:53;92014.78;;;10.32;64.09
6395;BME280;3230;42.588;23.358;2023-12-28T09:07:18;92019.72;;;10.55;63.40
6395;BME280;3230;42.588;23.358;2023-12-28T09:09:45;92015.16;;;9.96;66.64
6395;BME280;3230;42.588;23.358;2023-12-28T09:12:11;92006.13;;;10.04;68.15
6395;BME280;3230;42.588;23.358;2023-12-28T09:14:36;92011.34;;;10.04;68.72
6395;BME280;3230;42.588;23.358;2023-12-28T09:17:02;92012.03;;;10.21;67.73
6395;BME280;3230;42.588;23.358;2023-12-28T09:19:27;92008.91;;;9.75;69.98
6395;BME280;3230;42.588;23.358;2023-12-28T09:21:53;92003.53;;;9.82;68.49
6395;BME280;3230;42.588;23.358;2023-12-28T09:24:18;92004.56;;;9.58;69.46
6395;BME280;3230;42.588;23.358;2023-12-28T09:26:44;91999.53;;;9.35;71.74
6395;BME280;3230;42.588;23.358;2023-12-28T09:29:09;91985.84;;;9.27;71.67
6395;BME280;3230;42.588;23.358;2023-12-28T09:31:35;91989.06;;;9.35;70.18
6395;BME280;3230;42.588;23.358;2023-12-28T09:34:00;91983.16;;;9.22;70.22
6395;BME280;3230;42.588;23.358;2023-12-28T09:36:26;91980.38;;;9.12;71.23
6395;BME280;3230;42.588;23.358;2023-12-28T09:38:51;91984.84;;;9.11;71.28
6395;BME280;3230;42.588;23.358;2023-12-28T09:41:19;91980.69;;;9.16;71.33
6395;BME280;3230;42.588;23.358;2023-12-28T09:46:30;91974.69;;;9.15;68.69
6395;BME280;3230;42.588;23.358;2023-12-28T09:48:58;91970.44;;;9.31;69.66
6395;BME280;3230;42.588;23.358;2023-12-28T09:51:24;91963.81;;;9.23;67.79
6395;BME280;3230;42.588;23.358;2023-12-28T09:53:50;91964.53;;;9.19;68.75
6395;BME280;3230;42.588;23.358;2023-12-28T09:56:16;91961.22;;;9.23;68.33
6395;BME280;3230;42.588;23.358;2023-12-28T09:58:42;91964.38;;;9.08;68.40
6395;BME280;3230;42.588;23.358;2023-12-28T10:01:09;91965.16;;;9.26;69.29
6395;BME280;3230;42.588;23.358;2023-12-28T10:03:36;91954.03;;;9.14;68.08
6395;BME280;3230;42.588;23.358;2023-12-28T10:06:02;91954.19;;;9.29;67.42
6395;BME280;3230;42.588;23.358;2023-12-28T10:08:28;91935.97;;;8.95;69.18
6395;BME280;3230;42.588;23.358;2023-12-28T10:10:53;91950.75;;;9.23;67.68
6395;BME280;3230;42.588;23.358;2023-12-28T10:13:19;91938.25;;;9.08;66.58
6395;BME280;3230;42.588;23.358;2023-12-28T10:15:45;91940.56;;;9.05;68.47
6395;BME280;3230;42.588;23.358;2023-12-28T10:18:10;91930.84;;;9.00;67.72
6395;BME280;3230;42.588;23.358;2023-12-28T10:20:36;91915.19;;;8.83;67.62
6395;BME280;3230;42.588;23.358;2023-12-28T10:23:02;91933.50;;;9.05;67.33
6395;BME280;3230;42.588;23.358;2023-12-28T10:25:28;91931.16;;;9.04;66.82
6395;BME280;3230;42.588;23.358;2023-12-28T10:27:54;91930.13;;;9.27;65.96
6395;BME280;3230;42.588;23.358;2023-12-28T10:30:20;91917.47;;;9.19;66.64
6395;BME280;3230;42.588;23.358;2023-12-28T10:32:46;91920.97;;;9.24;66.64
6395;BME280;3230;42.588;23.358;2023-12-28T10:35:12;91914.38;;;9.44;65.73
6395;BME280;3230;42.588;23.358;2023-12-28T10:37:41;91909.19;;;9.49;65.51
6395;BME280;3230;42.588;23.358;2023-12-28T10:40:07;91894.44;;;9.65;64.64
6395;BME280;3230;42.588;23.358;2023-12-28T10:42:57;91890.50;;;9.90;63.27
6395;BME280;3230;42.588;23.358;2023-12-28T10:45:26;91884.91;;;9.81;64.94
6395;BME280;3230;42.588;23.358;2023-12-28T10:48:07;91875.31;;;9.87;63.91
6395;BME280;3230;42.588;23.358;2023-12-28T10:53:11;91875.38;;;9.97;64.68
6395;BME280;3230;42.588;23.358;2023-12-28T10:58:48;91867.91;;;10.11;64.56
6395;BME280;3230;42.588;23.358;2023-12-28T11:01:21;91861.94;;;10.16;62.91
6395;BME280;3230;42.588;23.358;2023-12-28T11:03:57;91863.19;;;10.13;63.73
6395;BME280;3230;42.588;23.358;2023-12-28T11:06:28;91858.78;;;10.14;65.60
6395;BME280;3230;42.588;23.358;2023-12-28T11:08:54;91855.16;;;10.20;65.82
6395;BME280;3230;42.588;23.358;2023-12-28T11:11:21;91846.75;;;10.18;62.60
6395;BME280;3230;42.588;23.358;2023-12-28T11:13:48;91848.75;;;10.38;63.60
6395;BME280;3230;42.588;23.358;2023-12-28T11:16:16;91853.44;;;10.36;63.32
6395;BME280;3230;42.588;23.358;2023-12-28T11:18:42;91843.53;;;10.38;65.04
6395;BME280;3230;42.588;23.358;2023-12-28T11:21:08;91838.56;;;10.42;63.44
6395;BME280;3230;42.588;23.358;2023-12-28T11:23:34;91841.50;;;10.50;64.84
6395;BME280;3230;42.588;23.358;2023-12-28T11:26:00;91832.88;;;10.55;63.57
6395;BME280;3230;42.588;23.358;2023-12-28T11:28:26;91827.84;;;10.48;64.27
6395;BME280;3230;42.588;23.358;2023-12-28T11:30:52;91823.19;;;10.55;62.90
6395;BME280;3230;42.588;23.358;2023-12-28T11:33:17;91821.88;;;10.53;63.41
6395;BME280;3230;42.588;23.358;2023-12-28T11:35:43;91822.69;;;10.59;64.72
6395;BME280;3230;42.588;23.358;2023-12-28T11:38:09;91820.56;;;10.55;64.76
6395;BME280;3230;42.588;23.358;2023-12-28T11:40:44;91823.72;;;10.52;65.99
6395;BME280;3230;42.588;23.358;2023-12-28T11:43:19;91817.91;;;10.45;65.59
6395;BME280;3230;42.588;23.358;2023-12-28T11:45:54;91826.00;;;10.44;64.49
6395;BME280;3230;42.588;23.358;2023-12-28T11:48:26;91817.31;;;10.38;64.85
6395;BME280;3230;42.588;23.358;2023-12-28T11:50:59;91818.53;;;10.30;64.75
6395;BME280;3230;42.588;23.358;2023-12-28T11:53:25;91819.38;;;10.36;64.68
6395;BME280;3230;42.588;23.358;2023-12-28T11:56:01;91815.09;;;10.19;65.10
6395;BME280;3230;42.588;23.358;2023-12-28T11:58:30;91818.97;;;10.49;63.78
6395;BME280;3230;42.588;23.358;2023-12-28T12:00:58;91811.56;;;10.41;64.47
6395;BME280;3230;42.588;23.358;2023-12-28T12:03:24;91803.66;;;10.36;64.38
6395;BME280;3230;42.588;23.358;2023-12-28T12:05:50;91803.53;;;10.58;63.67
6395;BME280;3230;42.588;23.358;2023-12-28T12:08:15;91800.06;;;10.47;61.75
6395;BME280;3230;42.588;23.358;2023-12-28T12:10:41;91795.69;;;10.58;62.32
6395;BME280;3230;42.588;23.358;2023-12-28T12:13:08;91796.28;;;10.70;56.83
6395;BME280;3230;42.588;23.358;2023-12-28T12:15:33;91794.63;;;10.54;50.97
6395;BME280;3230;42.588;23.358;2023-12-28T12:18:00;91798.88;;;10.65;49.53
6395;BME280;3230;42.588;23.358;2023-12-28T12:20:26;91799.50;;;10.83;48.02
6395;BME280;3230;42.588;23.358;2023-12-28T12:22:51;91790.34;;;10.96;49.20
6395;BME280;3230;42.588;23.358;2023-12-28T12:25:17;91780.66;;;10.96;49.74
6395;BME280;3230;42.588;23.358;2023-12-28T12:27:45;91784.13;;;11.07;52.39
6395;BME280;3230;42.588;23.358;2023-12-28T12:30:10;91777.78;;;11.08;54.12
6395;BME280;3230;42.588;23.358;2023-12-28T12:32:37;91781.50;;;11.07;53.63
6395;BME280;3230;42.588;23.358;2023-12-28T12:35:05;91778.34;;;11.10;51.04
6395;BME280;3230;42.588;23.358;2023-12-28T12:37:31;91785.66;;;11.03;51.45
6395;BME280;3230;42.588;23.358;2023-12-28T12:39:56;91792.19;;;11.00;52.93
6395;BME280;3230;42.588;23.358;2023-12-28T12:42:22;91784.88;;;11.02;54.08
6395;BME280;3230;42.588;23.358;2023-12-28T12:44:47;91787.72;;;10.96;56.50
6395;BME280;3230;42.588;23.358;2023-12-28T12:47:13;91793.47;;;10.87;55.24
6395;BME280;3230;42.588;23.358;2023-12-28T12:49:38;91795.53;;;10.80;52.62
6395;BME280;3230;42.588;23.358;2023-12-28T12:52:07;91797.91;;;10.87;53.17
6395;BME280;3230;42.588;23.358;2023-12-28T12:54:32;91793.50;;;10.98;55.07
6395;BME280;3230;42.588;23.358;2023-12-28T12:56:58;91789.31;;;10.97;53.49
6395;BME280;3230;42.588;23.358;2023-12-28T12:59:24;91798.72;;;10.87;54.71
6395;BME280;3230;42.588;23.358;2023-12-28T13:01:51;91789.50;;;10.85;55.97
6395;BME280;3230;42.588;23.358;2023-12-28T13:04:18;91797.72;;;11.04;51.69
6395;BME280;3230;42.588;23.358;2023-12-28T13:06:44;91796.16;;;11.03;51.92
6395;BME280;3230;42.588;23.358;2023-12-28T13:09:09;91790.63;;;11.04;50.78
6395;BME280;3230;42.588;23.358;2023-12-28T13:11:36;91793.03;;;11.11;46.81
6395;BME280;3230;42.588;23.358;2023-12-28T13:14:03;91786.69;;;11.02;46.56
6395;BME280;3230;42.588;23.358;2023-12-28T13:16:29;91794.00;;;10.95;46.41
6395;BME280;3230;42.588;23.358;2023-12-28T13:18:55;91790.31;;;10.85;47.15
6395;BME280;3230;42.588;23.358;2023-12-28T13:21:21;91792.94;;;10.80;48.04
6395;BME280;3230;42.588;23.358;2023-12-28T13:23:46;91797.31;;;10.69;47.97